Aviation Digital Data Service (ADDS)

Output produced by TAFs form (0051 UTC 06 December 2016)
found at http://www.aviationweather.gov/adds/tafs/
 
KBJC 060046Z 24013G30KT 20SM SCT080 SCT120 00/M14 A2970 RMK SHSN OVR MTNS
KBJC 060003Z 0600/0624 28025G35KT P6SM FEW080 SCT120 
     FM060200 35010KT P6SM SCT060 BKN100 
     FM060600 03006KT P6SM SCT050 BKN100 
     FM061200 12006KT P6SM BKN050 BKN100 
     FM061800 09012KT P6SM SCT050 BKN100 
     FM062100 10012KT P6SM SCT025 OVC050 
     PROB30 0621/0624 2SM -SN BR BKN020